Terminal Aerodrome Forecast
Issued by NWS Jackson, MS

Home | Current Version | Previous Version | Text Only | Print | Product List | Glossary On
Versions: 1 2 3 4 5 6 7 8 9 10 11 12 13 14 15 16 17 18 19
000
FTUS44 KMEG 301735
TAFTUP
TAF
KTUP 301735Z 3018/3118 15007KT P6SM SCT025 SCT250
      TEMPO 3018/3019 BKN025 OVC250
     FM301900 14007KT P6SM VCTS SCT050CB SCT250
     FM310100 12003KT P6SM SCT100 SCT250
     FM311600 09005KT P6SM SCT030 SCT250=

USA.gov is the U.S. government's official web portal to all federal, state and local government web resources and services.